createdAt,value
2019-02-26T00:02:23.609Z,7.90
2019-02-26T00:04:54.125Z,7.90
2019-02-26T00:07:25.194Z,7.90
2019-02-26T00:09:55.707Z,7.80
2019-02-26T00:12:26.283Z,7.80
2019-02-26T00:14:56.945Z,7.80
2019-02-26T00:17:25.947Z,7.80
2019-02-26T00:19:54.793Z,7.80
2019-02-26T00:22:23.662Z,7.60
2019-02-26T00:24:52.546Z,7.60
2019-02-26T00:27:23.367Z,7.50
2019-02-26T00:29:53.069Z,7.50
2019-02-26T00:32:24.930Z,7.50
2019-02-26T00:34:55.352Z,7.50
2019-02-26T00:37:26.246Z,7.50
2019-02-26T00:39:56.378Z,7.50
2019-02-26T00:42:26.421Z,7.40
2019-02-26T00:44:57.711Z,7.40
2019-02-26T00:47:29.895Z,7.40
2019-02-26T00:49:56.787Z,7.40
2019-02-26T00:52:25.573Z,7.30
2019-02-26T00:54:57.591Z,7.30
2019-02-26T00:57:27.147Z,7.30
2019-02-26T00:59:55.553Z,7.40
2019-02-26T01:02:24.889Z,7.40
2019-02-26T01:04:53.656Z,7.30
2019-02-26T01:07:23.851Z,7.30
2019-02-26T01:09:54.703Z,7.30
2019-02-26T01:12:23.619Z,7.30
2019-02-26T01:14:52.430Z,7.30
2019-02-26T01:17:21.199Z,7.20
2019-02-26T01:19:50.112Z,7.20
2019-02-26T01:22:19.007Z,7.20
2019-02-26T01:24:49.689Z,7.10
2019-02-26T01:27:19.505Z,7.10
2019-02-26T01:29:51.248Z,7.10
2019-02-26T01:32:20.483Z,7.10
2019-02-26T01:34:49.552Z,7.10
2019-02-26T01:37:18.399Z,7.00
2019-02-26T01:39:49.199Z,7.00
2019-02-26T01:42:19.309Z,7.00
2019-02-26T01:44:48.163Z,6.90
2019-02-26T01:47:17.929Z,6.90
2019-02-26T01:49:49.388Z,6.90
2019-02-26T01:52:17.969Z,6.90
2019-02-26T01:54:46.853Z,6.80
2019-02-26T01:57:17.326Z,6.80
2019-02-26T01:59:47.446Z,6.80
2019-02-26T02:02:18.110Z,6.70
2019-02-26T02:04:47.257Z,6.70
2019-02-26T02:07:16.029Z,6.70
2019-02-26T02:09:46.796Z,6.70
2019-02-26T02:12:15.458Z,6.70
2019-02-26T02:14:44.220Z,6.70
2019-02-26T02:17:13.585Z,6.60
2019-02-26T02:19:42.531Z,6.70
2019-02-26T02:22:12.182Z,6.60
2019-02-26T02:24:43.671Z,6.60
2019-02-26T02:27:12.633Z,6.60
2019-02-26T02:29:45.779Z,6.50
2019-02-26T02:32:13.243Z,6.50
2019-02-26T02:34:43.054Z,6.50
2019-02-26T02:37:12.054Z,6.50
2019-02-26T02:39:40.827Z,6.50
2019-02-26T02:42:10.985Z,6.50
2019-02-26T02:44:42.205Z,6.40
2019-02-26T02:47:11.292Z,6.40
2019-02-26T02:49:42.585Z,6.40
2019-02-26T02:52:11.875Z,6.40
2019-02-26T02:54:43.494Z,6.40
2019-02-26T02:57:11.340Z,6.40
2019-02-26T02:59:42.214Z,6.40
2019-02-26T03:02:12.672Z,6.40
2019-02-26T03:04:41.179Z,6.30
2019-02-26T03:07:09.964Z,6.30
2019-02-26T03:09:40.596Z,6.30
2019-02-26T03:12:09.256Z,6.30
2019-02-26T03:14:39.164Z,6.30
2019-02-26T03:17:10.979Z,6.30
2019-02-26T03:19:41.637Z,6.20
2019-02-26T03:22:10.491Z,6.20
2019-02-26T03:24:40.055Z,6.20
2019-02-26T03:27:08.886Z,6.10
2019-02-26T03:29:37.633Z,6.10
2019-02-26T03:32:06.492Z,6.10
2019-02-26T03:34:35.264Z,6.10
2019-02-26T03:37:06.260Z,6.00
2019-02-26T03:39:34.599Z,6.00
2019-02-26T03:42:03.437Z,6.00
2019-02-26T03:44:32.274Z,6.00
2019-02-26T03:47:01.052Z,6.00
2019-02-26T03:49:29.888Z,6.00
2019-02-26T03:52:00.135Z,6.00
2019-02-26T03:54:29.065Z,6.00
2019-02-26T03:56:57.923Z,6.00
2019-02-26T03:59:26.789Z,6.00
2019-02-26T04:01:55.687Z,6.00
2019-02-26T04:04:26.163Z,6.00
2019-02-26T04:06:55.890Z,6.00
2019-02-26T04:09:25.650Z,5.90
2019-02-26T04:11:55.428Z,5.90
2019-02-26T04:14:27.706Z,6.00
2019-02-26T04:16:55.926Z,6.00
2019-02-26T04:19:26.805Z,6.00
2019-02-26T04:22:30.303Z,6.00
2019-02-26T04:25:06.300Z,6.00
2019-02-26T04:28:11.312Z,5.90
2019-02-26T04:31:47.096Z,5.90
2019-02-26T04:34:37.443Z,5.90
2019-02-26T04:37:14.476Z,5.80
2019-02-26T04:40:10.146Z,5.80
2019-02-26T04:42:51.868Z,5.70
2019-02-26T04:45:47.886Z,5.70
2019-02-26T04:48:19.354Z,5.80
2019-02-26T04:50:47.724Z,5.80
2019-02-26T04:53:16.518Z,5.70
2019-02-26T04:55:45.263Z,5.70
2019-02-26T04:58:17.042Z,5.80
2019-02-26T05:00:44.531Z,5.70
2019-02-26T05:03:14.891Z,5.80
2019-02-26T05:05:43.933Z,5.70
2019-02-26T05:08:14.695Z,5.80
2019-02-26T05:10:43.572Z,5.80
2019-02-26T05:13:12.398Z,5.80
2019-02-26T05:15:43.387Z,5.90
2019-02-26T05:18:11.663Z,5.90
2019-02-26T05:20:43.081Z,5.90
2019-02-26T05:23:10.940Z,5.90
2019-02-26T05:25:42.371Z,5.80
2019-02-26T05:28:12.531Z,5.90
2019-02-26T05:30:43.238Z,5.90
2019-02-26T05:33:11.151Z,5.90
2019-02-26T05:35:40.865Z,5.90
2019-02-26T05:38:10.572Z,5.80
2019-02-26T05:40:40.401Z,5.80
2019-02-26T05:43:09.862Z,5.80
2019-02-26T05:45:38.690Z,5.80
2019-02-26T05:48:07.511Z,5.70
2019-02-26T05:50:38.661Z,5.70
2019-02-26T05:53:07.656Z,5.70
2019-02-26T05:55:37.466Z,5.70
2019-02-26T05:58:07.434Z,5.60
2019-02-26T06:00:36.729Z,5.60
2019-02-26T06:03:09.004Z,5.60
2019-02-26T06:05:36.083Z,5.50
2019-02-26T06:08:05.052Z,5.50
2019-02-26T06:10:33.852Z,5.50
2019-02-26T06:13:04.865Z,5.50
2019-02-26T06:15:34.192Z,5.50
2019-02-26T06:18:03.101Z,5.50
2019-02-26T06:20:33.962Z,5.40
2019-02-26T06:23:02.375Z,5.40
2019-02-26T06:25:31.161Z,5.40
2019-02-26T06:28:02.304Z,5.40
2019-02-26T06:30:30.405Z,5.40
2019-02-26T06:33:02.039Z,5.40
2019-02-26T06:35:30.994Z,5.40
2019-02-26T06:38:02.135Z,5.40
2019-02-26T06:40:34.469Z,5.40
2019-02-26T06:43:01.282Z,5.40
2019-02-26T06:45:30.164Z,5.40
2019-02-26T06:47:58.930Z,5.40
2019-02-26T06:50:27.698Z,5.40
2019-02-26T06:52:56.490Z,5.40
2019-02-26T06:55:25.268Z,5.40
2019-02-26T06:57:55.152Z,5.40
2019-02-26T07:00:26.922Z,5.40
2019-02-26T07:02:54.680Z,5.50
2019-02-26T07:05:24.540Z,5.50
2019-02-26T07:07:55.089Z,5.60
2019-02-26T07:10:28.199Z,5.60
2019-02-26T07:12:55.310Z,5.60
2019-02-26T07:15:24.180Z,5.60
2019-02-26T07:17:53.013Z,5.60
2019-02-26T07:20:21.857Z,5.70
2019-02-26T07:22:51.625Z,5.70
2019-02-26T07:25:20.484Z,5.70
2019-02-26T07:27:51.219Z,5.80
2019-02-26T07:30:19.758Z,5.70
2019-02-26T07:32:48.498Z,5.70
2019-02-26T07:35:17.388Z,5.70
2019-02-26T07:37:46.208Z,5.70
2019-02-26T07:40:16.041Z,5.70
2019-02-26T07:42:46.764Z,5.80
2019-02-26T07:45:19.760Z,5.90
2019-02-26T07:47:49.125Z,6.20
2019-02-26T07:50:17.583Z,6.30
2019-02-26T07:52:47.455Z,6.60
2019-02-26T07:55:17.453Z,6.70
2019-02-26T07:57:48.959Z,6.80
2019-02-26T08:00:18.535Z,6.90
2019-02-26T08:02:47.318Z,7.00
2019-02-26T08:05:19.304Z,7.10
2019-02-26T08:07:49.229Z,7.20
2019-02-26T08:10:19.555Z,7.10
2019-02-26T08:12:48.570Z,7.20
2019-02-26T08:15:17.588Z,7.20
2019-02-26T08:17:50.288Z,7.30
2019-02-26T08:20:17.121Z,7.40
2019-02-26T08:22:45.980Z,7.40
2019-02-26T08:25:14.916Z,7.50
2019-02-26T08:27:43.752Z,7.60
2019-02-26T08:30:17.742Z,7.80
2019-02-26T08:32:48.364Z,7.90
2019-02-26T08:35:18.343Z,7.90
2019-02-26T08:37:46.453Z,7.90
2019-02-26T08:40:15.679Z,8.00
2019-02-26T08:42:44.562Z,8.00
2019-02-26T08:45:17.560Z,8.10
2019-02-26T08:47:45.836Z,8.10
2019-02-26T08:50:15.087Z,8.10
2019-02-26T08:52:46.788Z,8.10
2019-02-26T08:55:16.147Z,8.20
2019-02-26T08:57:45.275Z,8.30
2019-02-26T09:00:16.014Z,8.40
2019-02-26T09:02:46.104Z,8.40
2019-02-26T09:05:15.362Z,8.50
2019-02-26T09:07:45.585Z,8.60
2019-02-26T09:10:17.554Z,8.80
2019-02-26T09:12:48.570Z,8.90
2019-02-26T09:15:16.706Z,9.00
2019-02-26T09:17:45.554Z,9.10
2019-02-26T09:20:15.426Z,9.20
2019-02-26T09:22:47.998Z,9.20
2019-02-26T09:25:15.175Z,9.20
2019-02-26T09:27:43.988Z,9.20
2019-02-26T09:30:16.180Z,9.30
2019-02-26T09:32:45.179Z,9.30
2019-02-26T09:35:16.876Z,9.40
2019-02-26T09:37:47.474Z,9.40
2019-02-26T09:40:17.120Z,9.50
2019-02-26T09:42:51.194Z,9.60
2019-02-26T09:45:20.413Z,9.80
2019-02-26T09:47:49.735Z,9.90
2019-02-26T09:50:20.742Z,10.00
2019-02-26T09:52:50.836Z,10.10
2019-02-26T09:55:20.428Z,10.10
2019-02-26T09:57:49.236Z,10.20
2019-02-26T10:00:20.284Z,10.20
2019-02-26T10:02:49.498Z,10.30
2019-02-26T10:05:19.674Z,10.30
2019-02-26T10:07:48.479Z,10.40
2019-02-26T10:10:17.759Z,10.40
2019-02-26T10:12:46.588Z,10.50
2019-02-26T10:15:15.730Z,10.50
2019-02-26T10:17:45.210Z,10.70
2019-02-26T10:20:17.763Z,10.70
2019-02-26T10:22:46.732Z,10.70
2019-02-26T10:25:15.662Z,10.80
2019-02-26T10:27:45.446Z,10.80
2019-02-26T10:30:16.275Z,10.80
2019-02-26T10:32:46.851Z,10.80
2019-02-26T10:35:19.457Z,10.90
2019-02-26T10:37:49.812Z,11.10
2019-02-26T10:40:19.523Z,11.20
2019-02-26T10:42:48.737Z,11.30
2019-02-26T10:45:18.725Z,11.50
2019-02-26T10:47:48.970Z,11.60
2019-02-26T10:50:20.358Z,11.70
2019-02-26T10:52:49.195Z,11.80
2019-02-26T10:55:20.718Z,11.90
2019-02-26T10:57:48.687Z,12.00
2019-02-26T11:00:22.441Z,12.10
2019-02-26T11:02:53.453Z,12.10
2019-02-26T11:05:26.278Z,12.00
2019-02-26T11:07:54.938Z,11.90
2019-02-26T11:10:25.069Z,11.90
2019-02-26T11:12:56.295Z,11.90
2019-02-26T11:15:26.715Z,12.00
2019-02-26T11:17:55.863Z,12.10
2019-02-26T11:20:27.793Z,12.10
2019-02-26T11:22:55.417Z,12.10
2019-02-26T11:25:26.865Z,12.20
2019-02-26T11:27:55.375Z,12.30
2019-02-26T11:30:27.244Z,12.40
2019-02-26T11:32:58.613Z,12.30
2019-02-26T11:35:27.445Z,12.20
2019-02-26T11:37:57.988Z,12.10
2019-02-26T11:40:29.601Z,11.80
2019-02-26T11:42:59.775Z,11.70
2019-02-26T11:45:29.715Z,11.60
2019-02-26T11:48:03.671Z,11.70
2019-02-26T11:50:29.084Z,11.80
2019-02-26T11:52:57.937Z,11.90
2019-02-26T11:55:29.185Z,12.00
2019-02-26T11:57:57.308Z,12.40
2019-02-26T12:00:36.318Z,12.60
2019-02-26T12:03:04.759Z,12.70
2019-02-26T12:05:36.024Z,12.70
2019-02-26T12:08:04.402Z,12.70
2019-02-26T12:10:35.897Z,12.70
2019-02-26T12:13:04.505Z,12.60
2019-02-26T12:15:35.697Z,12.60
2019-02-26T12:18:04.141Z,12.50
2019-02-26T12:20:32.871Z,12.50
2019-02-26T12:23:01.660Z,12.50
2019-02-26T12:25:30.428Z,12.40
2019-02-26T12:28:00.167Z,12.40
2019-02-26T12:30:29.953Z,12.40
2019-02-26T12:32:58.753Z,12.40
2019-02-26T12:35:29.691Z,12.40
2019-02-26T12:37:59.354Z,12.40
2019-02-26T12:40:28.738Z,12.50
2019-02-26T12:42:57.767Z,12.50
2019-02-26T12:45:28.598Z,12.60
2019-02-26T12:47:57.179Z,12.60
2019-02-26T12:50:29.513Z,12.60
2019-02-26T12:52:57.232Z,12.70
2019-02-26T12:55:29.512Z,12.80
2019-02-26T12:57:59.458Z,12.90
2019-02-26T13:00:27.866Z,13.00
2019-02-26T13:03:05.689Z,13.10
2019-02-26T13:05:35.247Z,13.10
2019-02-26T13:08:06.030Z,13.00
2019-02-26T13:10:34.563Z,12.90
2019-02-26T13:13:07.424Z,12.90
2019-02-26T13:15:34.191Z,12.90
2019-02-26T13:18:03.149Z,12.90
2019-02-26T13:20:32.133Z,12.80
2019-02-26T13:23:16.267Z,12.80
2019-02-26T13:25:31.663Z,12.80
2019-02-26T13:28:03.677Z,12.90
2019-02-26T13:30:37.194Z,12.90
2019-02-26T13:33:10.971Z,13.00
2019-02-26T13:35:36.752Z,13.00
2019-02-26T13:38:05.727Z,13.00
2019-02-26T13:40:38.507Z,13.00
2019-02-26T13:43:07.667Z,13.10
2019-02-26T13:45:36.752Z,13.00
2019-02-26T13:48:05.667Z,13.00
2019-02-26T13:50:34.794Z,13.00
2019-02-26T13:53:03.886Z,13.00
2019-02-26T13:55:32.814Z,12.90
2019-02-26T13:58:04.796Z,12.80
2019-02-26T14:00:32.883Z,12.90
2019-02-26T14:03:01.673Z,12.90
2019-02-26T14:05:37.945Z,12.80
2019-02-26T14:08:01.430Z,12.90
2019-02-26T14:10:30.366Z,12.80
2019-02-26T14:13:04.595Z,12.80
2019-02-26T14:15:34.127Z,12.70
2019-02-26T14:18:03.552Z,12.70
2019-02-26T14:20:33.847Z,12.70
2019-02-26T14:23:02.871Z,12.70
2019-02-26T14:25:31.776Z,12.70
2019-02-26T14:28:00.809Z,12.70
2019-02-26T14:30:29.752Z,12.80
2019-02-26T14:32:58.552Z,12.80
2019-02-26T14:35:27.396Z,12.80
2019-02-26T14:37:56.172Z,12.80
2019-02-26T14:40:25.007Z,12.80
2019-02-26T14:42:53.839Z,12.70
2019-02-26T14:45:22.744Z,12.80
2019-02-26T14:47:51.707Z,12.80
2019-02-26T14:50:20.540Z,12.80
2019-02-26T14:52:51.844Z,12.80
2019-02-26T14:55:21.395Z,12.80
2019-02-26T14:57:50.281Z,12.70
2019-02-26T15:00:24.255Z,12.70
2019-02-26T15:02:53.096Z,12.70
2019-02-26T15:05:21.951Z,12.60
2019-02-26T15:07:50.844Z,12.60
2019-02-26T15:10:20.517Z,12.50
2019-02-26T15:12:49.689Z,12.40
2019-02-26T15:15:24.455Z,12.30
2019-02-26T15:17:53.698Z,12.20
2019-02-26T15:20:22.652Z,12.10
2019-02-26T15:22:51.707Z,12.00
2019-02-26T15:25:21.757Z,11.80
2019-02-26T15:27:50.573Z,11.80
2019-02-26T15:30:24.532Z,11.70
2019-02-26T15:32:53.536Z,11.70
2019-02-26T15:35:26.539Z,11.70
2019-02-26T15:37:55.666Z,11.80
2019-02-26T15:40:28.295Z,11.90
2019-02-26T15:43:00.266Z,11.90
2019-02-26T15:45:29.681Z,12.00
2019-02-26T15:47:58.724Z,12.10
2019-02-26T15:50:27.551Z,12.10
2019-02-26T15:52:56.314Z,12.10
2019-02-26T15:55:28.703Z,12.10
2019-02-26T15:58:02.986Z,12.10
2019-02-26T16:00:28.615Z,12.00
2019-02-26T16:02:59.325Z,12.00
2019-02-26T16:05:28.347Z,12.00
2019-02-26T16:07:57.417Z,12.00
2019-02-26T16:10:26.340Z,11.90
2019-02-26T16:12:56.783Z,11.90
2019-02-26T16:15:25.923Z,11.90
2019-02-26T16:17:58.190Z,11.90
2019-02-26T16:20:25.435Z,11.90
2019-02-26T16:22:54.239Z,11.90
2019-02-26T16:25:23.066Z,11.80
2019-02-26T16:27:53.804Z,11.80
2019-02-26T16:30:22.555Z,11.80
2019-02-26T16:32:52.145Z,11.70
2019-02-26T16:35:24.766Z,11.60
2019-02-26T16:37:52.086Z,11.50
2019-02-26T16:40:22.315Z,11.40
2019-02-26T16:42:51.248Z,11.40
2019-02-26T16:45:21.335Z,11.30
2019-02-26T16:47:50.240Z,11.20
2019-02-26T16:50:20.699Z,11.20
2019-02-26T16:52:49.741Z,11.20
2019-02-26T16:55:18.611Z,11.20
2019-02-26T16:57:47.879Z,11.10
2019-02-26T17:00:20.413Z,11.10
2019-02-26T17:02:49.082Z,11.10
2019-02-26T17:05:18.054Z,11.10
2019-02-26T17:07:47.023Z,11.20
2019-02-26T17:10:17.966Z,11.10
2019-02-26T17:12:53.113Z,11.10
2019-02-26T17:15:26.769Z,11.10
2019-02-26T17:17:54.475Z,10.90
2019-02-26T17:20:23.695Z,10.90
2019-02-26T17:22:52.741Z,10.80
2019-02-26T17:25:21.678Z,10.70
2019-02-26T17:27:50.618Z,10.60
2019-02-26T17:30:23.860Z,10.50
2019-02-26T17:32:53.587Z,10.40
2019-02-26T17:35:22.519Z,10.40
2019-02-26T17:37:52.052Z,10.40
2019-02-26T17:40:36.624Z,10.40
2019-02-26T17:43:19.385Z,10.50
2019-02-26T17:45:48.722Z,10.50
2019-02-26T17:48:17.686Z,10.60
2019-02-26T17:50:46.700Z,10.50
2019-02-26T17:53:15.607Z,10.50
2019-02-26T17:55:44.541Z,10.50
2019-02-26T17:58:13.399Z,10.50
2019-02-26T18:00:43.724Z,10.50
2019-02-26T18:03:12.524Z,10.40
2019-02-26T18:05:51.597Z,10.30
2019-02-26T18:08:19.686Z,10.30
2019-02-26T18:10:56.301Z,10.10
2019-02-26T18:13:31.913Z,10.00
2019-02-26T18:16:08.957Z,10.00
2019-02-26T18:18:34.211Z,9.90
2019-02-26T18:21:05.642Z,9.80
2019-02-26T18:23:39.420Z,9.80
2019-02-26T18:26:08.404Z,9.70
2019-02-26T18:28:37.244Z,9.60
2019-02-26T18:31:08.526Z,9.60
2019-02-26T18:33:37.749Z,9.60
2019-02-26T18:36:06.691Z,9.60
2019-02-26T18:38:37.178Z,9.50
2019-02-26T18:41:08.030Z,9.40
2019-02-26T18:43:36.938Z,9.40
2019-02-26T18:46:05.987Z,9.40
2019-02-26T18:48:34.811Z,9.40
2019-02-26T18:51:03.819Z,9.50
2019-02-26T18:53:32.913Z,9.50
2019-02-26T18:56:04.130Z,9.50
2019-02-26T18:58:32.580Z,9.40
2019-02-26T19:01:06.293Z,9.30
2019-02-26T19:03:35.280Z,9.20
2019-02-26T19:06:04.190Z,9.10
2019-02-26T19:08:39.231Z,9.10
2019-02-26T19:11:06.520Z,9.00
2019-02-26T19:13:36.250Z,9.00
2019-02-26T19:16:05.506Z,8.90
2019-02-26T19:18:35.758Z,8.80
2019-02-26T19:21:10.857Z,8.70
2019-02-26T19:23:40.327Z,8.70
2019-02-26T19:26:13.480Z,8.70
2019-02-26T19:28:40.124Z,8.60
2019-02-26T19:31:10.289Z,8.60
2019-02-26T19:33:40.083Z,8.60
2019-02-26T19:36:13.030Z,8.50
2019-02-26T19:38:42.462Z,8.50
2019-02-26T19:41:13.169Z,8.50
2019-02-26T19:43:42.264Z,8.40
2019-02-26T19:46:11.440Z,8.40
2019-02-26T19:48:40.662Z,8.40
2019-02-26T19:51:09.538Z,8.40
2019-02-26T19:53:38.545Z,8.40
2019-02-26T19:56:07.482Z,8.30
2019-02-26T19:58:36.505Z,8.30
2019-02-26T20:01:05.912Z,8.30
2019-02-26T20:03:39.824Z,8.20
2019-02-26T20:06:08.440Z,8.20
2019-02-26T20:08:38.674Z,8.10
2019-02-26T20:11:07.507Z,8.10
2019-02-26T20:13:41.890Z,8.00
2019-02-26T20:16:08.789Z,8.00
2019-02-26T20:18:37.624Z,7.90
2019-02-26T20:21:08.401Z,7.90
2019-02-26T20:23:41.774Z,8.00
2019-02-26T20:26:08.516Z,8.00
2019-02-26T20:28:37.586Z,8.00
2019-02-26T20:31:06.810Z,7.90
2019-02-26T20:33:35.661Z,7.90
2019-02-26T20:36:08.408Z,7.80
2019-02-26T20:38:41.376Z,7.80
2019-02-26T20:41:13.190Z,7.70
2019-02-26T20:43:43.863Z,7.70
2019-02-26T20:46:12.983Z,7.60
2019-02-26T20:48:43.418Z,7.60
2019-02-26T20:51:12.526Z,7.60
2019-02-26T20:53:41.506Z,7.60
2019-02-26T20:56:10.766Z,7.60
2019-02-26T20:58:44.934Z,7.60
2019-02-26T21:01:15.073Z,7.50
2019-02-26T21:03:45.153Z,7.50
2019-02-26T21:06:15.662Z,7.40
2019-02-26T21:08:45.911Z,7.40
2019-02-26T21:11:16.638Z,7.30
2019-02-26T21:13:47.565Z,7.30
2019-02-26T21:16:18.586Z,7.30
2019-02-26T21:18:48.192Z,7.30
2019-02-26T21:21:17.118Z,7.30
2019-02-26T21:23:48.649Z,7.20
2019-02-26T21:26:19.669Z,7.20
2019-02-26T21:28:49.380Z,7.20
2019-02-26T21:31:19.139Z,7.20
2019-02-26T21:33:49.570Z,7.20
2019-02-26T21:36:19.888Z,7.10
2019-02-26T21:38:52.432Z,7.10
2019-02-26T21:41:24.556Z,7.10
2019-02-26T21:43:53.604Z,7.00
2019-02-26T21:46:23.300Z,7.00
2019-02-26T21:48:53.226Z,7.00
2019-02-26T21:51:23.532Z,7.00
2019-02-26T21:53:52.798Z,6.90
2019-02-26T21:56:22.976Z,6.90
2019-02-26T21:58:51.979Z,6.90
2019-02-26T22:01:20.888Z,6.90
2019-02-26T22:03:51.375Z,6.80
2019-02-26T22:06:20.325Z,6.80
2019-02-26T22:08:51.468Z,6.80
2019-02-26T22:11:22.164Z,6.80
2019-02-26T22:13:52.060Z,6.80
2019-02-26T22:16:21.000Z,6.70
2019-02-26T22:18:52.770Z,6.80
2019-02-26T22:21:21.866Z,6.80
2019-02-26T22:23:53.495Z,6.80
2019-02-26T22:26:25.946Z,6.80
2019-02-26T22:28:55.445Z,6.70
2019-02-26T22:31:28.699Z,6.70
2019-02-26T22:33:55.098Z,6.60
2019-02-26T22:36:24.001Z,6.60
2019-02-26T22:38:52.824Z,6.60
2019-02-26T22:41:21.661Z,6.50
2019-02-26T22:43:51.056Z,6.50
2019-02-26T22:46:19.889Z,6.50
2019-02-26T22:48:48.797Z,6.50
2019-02-26T22:51:19.524Z,6.40
2019-02-26T22:53:48.384Z,6.40
2019-02-26T22:56:21.936Z,6.40
2019-02-26T22:58:50.647Z,6.40
2019-02-26T23:01:49.293Z,6.40
2019-02-26T23:04:19.768Z,6.40
2019-02-26T23:06:56.729Z,6.30
2019-02-26T23:09:27.837Z,6.30
2019-02-26T23:11:56.655Z,6.30
2019-02-26T23:14:25.618Z,6.30
2019-02-26T23:16:54.608Z,6.30
2019-02-26T23:19:23.938Z,6.30
2019-02-26T23:21:52.899Z,6.30
2019-02-26T23:24:22.099Z,6.30
2019-02-26T23:26:51.169Z,6.30
2019-02-26T23:29:20.134Z,6.30
2019-02-26T23:31:49.989Z,6.20
2019-02-26T23:34:21.889Z,6.20
2019-02-26T23:36:49.821Z,6.10
2019-02-26T23:39:22.877Z,6.10
2019-02-26T23:41:53.497Z,6.10
2019-02-26T23:44:22.697Z,6.10
2019-02-26T23:46:54.929Z,6.10
2019-02-26T23:49:23.855Z,6.10
2019-02-26T23:51:53.715Z,6.10
2019-02-26T23:54:23.215Z,6.10
2019-02-26T23:56:52.601Z,6.10
2019-02-26T23:59:21.525Z,6.10
